sensor_id;sensor_type;location;lat;lon;timestamp;P1;durP1;ratioP1;P2;durP2;ratioP2
11287;SDS011;5700;50.996;7.044;2024-01-07T00:01:25;31.75;;;12.98;;
11287;SDS011;5700;50.996;7.044;2024-01-07T00:04:26;28.48;;;12.70;;
11287;SDS011;5700;50.996;7.044;2024-01-07T00:07:28;30.08;;;12.52;;
11287;SDS011;5700;50.996;7.044;2024-01-07T00:10:31;23.63;;;10.60;;
11287;SDS011;5700;50.996;7.044;2024-01-07T00:13:33;22.88;;;10.40;;
11287;SDS011;5700;50.996;7.044;2024-01-07T00:16:34;25.60;;;11.77;;
11287;SDS011;5700;50.996;7.044;2024-01-07T00:19:36;21.92;;;9.95;;
11287;SDS011;5700;50.996;7.044;2024-01-07T00:22:38;25.38;;;10.98;;
11287;SDS011;5700;50.996;7.044;2024-01-07T00:25:41;23.02;;;9.88;;
11287;SDS011;5700;50.996;7.044;2024-01-07T00:28:43;24.92;;;9.98;;
11287;SDS011;5700;50.996;7.044;2024-01-07T00:31:45;23.02;;;10.68;;
11287;SDS011;5700;50.996;7.044;2024-01-07T00:34:46;25.83;;;10.40;;
11287;SDS011;5700;50.996;7.044;2024-01-07T00:37:48;23.77;;;10.35;;
11287;SDS011;5700;50.996;7.044;2024-01-07T00:40:52;25.83;;;10.40;;
11287;SDS011;5700;50.996;7.044;2024-01-07T00:43:54;22.77;;;10.13;;
11287;SDS011;5700;50.996;7.044;2024-01-07T00:46:55;23.05;;;9.85;;
11287;SDS011;5700;50.996;7.044;2024-01-07T00:49:57;23.40;;;10.48;;
11287;SDS011;5700;50.996;7.044;2024-01-07T00:52:59;21.13;;;9.57;;
11287;SDS011;5700;50.996;7.044;2024-01-07T00:56:02;21.02;;;9.80;;
11287;SDS011;5700;50.996;7.044;2024-01-07T00:59:04;18.90;;;8.90;;
11287;SDS011;5700;50.996;7.044;2024-01-07T01:02:06;16.98;;;8.48;;
11287;SDS011;5700;50.996;7.044;2024-01-07T01:05:07;18.52;;;7.95;;
11287;SDS011;5700;50.996;7.044;2024-01-07T01:08:09;19.50;;;8.10;;
11287;SDS011;5700;50.996;7.044;2024-01-07T01:11:13;16.73;;;7.50;;
11287;SDS011;5700;50.996;7.044;2024-01-07T01:14:15;17.05;;;8.32;;
11287;SDS011;5700;50.996;7.044;2024-01-07T01:17:16;16.45;;;8.18;;
11287;SDS011;5700;50.996;7.044;2024-01-07T01:20:18;16.67;;;7.53;;
11287;SDS011;5700;50.996;7.044;2024-01-07T01:23:19;15.70;;;7.38;;
11287;SDS011;5700;50.996;7.044;2024-01-07T01:26:23;12.52;;;5.95;;
11287;SDS011;5700;50.996;7.044;2024-01-07T01:29:24;13.32;;;6.05;;
11287;SDS011;5700;50.996;7.044;2024-01-07T01:32:26;11.20;;;5.32;;
11287;SDS011;5700;50.996;7.044;2024-01-07T01:35:27;8.70;;;4.35;;
11287;SDS011;5700;50.996;7.044;2024-01-07T01:38:29;10.57;;;4.78;;
11287;SDS011;5700;50.996;7.044;2024-01-07T01:41:32;10.43;;;5.25;;
11287;SDS011;5700;50.996;7.044;2024-01-07T01:44:34;11.80;;;5.20;;
11287;SDS011;5700;50.996;7.044;2024-01-07T01:47:36;11.95;;;5.55;;
11287;SDS011;5700;50.996;7.044;2024-01-07T01:50:37;12.50;;;6.28;;
11287;SDS011;5700;50.996;7.044;2024-01-07T01:53:39;15.85;;;6.63;;
11287;SDS011;5700;50.996;7.044;2024-01-07T01:56:42;11.63;;;5.80;;
11287;SDS011;5700;50.996;7.044;2024-01-07T01:59:44;14.52;;;6.28;;
11287;SDS011;5700;50.996;7.044;2024-01-07T02:02:46;15.90;;;6.95;;
11287;SDS011;5700;50.996;7.044;2024-01-07T02:05:48;16.50;;;8.10;;
11287;SDS011;5700;50.996;7.044;2024-01-07T02:08:50;15.57;;;7.32;;
11287;SDS011;5700;50.996;7.044;2024-01-07T02:15:11;14.13;;;6.43;;
11287;SDS011;5700;50.996;7.044;2024-01-07T02:18:13;16.50;;;7.18;;
11287;SDS011;5700;50.996;7.044;2024-01-07T02:21:15;15.52;;;7.30;;
11287;SDS011;5700;50.996;7.044;2024-01-07T02:24:18;21.50;;;8.70;;
11287;SDS011;5700;50.996;7.044;2024-01-07T02:27:19;18.08;;;8.82;;
11287;SDS011;5700;50.996;7.044;2024-01-07T02:30:21;21.00;;;9.43;;
11287;SDS011;5700;50.996;7.044;2024-01-07T02:33:23;19.05;;;9.05;;
11287;SDS011;5700;50.996;7.044;2024-01-07T02:36:24;18.90;;;8.70;;
11287;SDS011;5700;50.996;7.044;2024-01-07T02:39:27;21.13;;;9.52;;
11287;SDS011;5700;50.996;7.044;2024-01-07T02:42:29;16.27;;;8.20;;
11287;SDS011;5700;50.996;7.044;2024-01-07T02:45:31;19.75;;;9.00;;
11287;SDS011;5700;50.996;7.044;2024-01-07T02:48:32;19.15;;;9.02;;
11287;SDS011;5700;50.996;7.044;2024-01-07T02:51:34;19.80;;;9.88;;
11287;SDS011;5700;50.996;7.044;2024-01-07T02:54:37;25.15;;;11.30;;
11287;SDS011;5700;50.996;7.044;2024-01-07T02:57:39;19.25;;;10.07;;
11287;SDS011;5700;50.996;7.044;2024-01-07T03:00:41;19.85;;;9.68;;
11287;SDS011;5700;50.996;7.044;2024-01-07T03:03:42;19.48;;;9.50;;
11287;SDS011;5700;50.996;7.044;2024-01-07T03:06:44;21.85;;;11.00;;
11287;SDS011;5700;50.996;7.044;2024-01-07T03:09:47;27.20;;;11.85;;
11287;SDS011;5700;50.996;7.044;2024-01-07T03:12:50;21.60;;;10.73;;
11287;SDS011;5700;50.996;7.044;2024-01-07T03:15:51;20.55;;;10.57;;
11287;SDS011;5700;50.996;7.044;2024-01-07T03:18:53;23.30;;;10.45;;
11287;SDS011;5700;50.996;7.044;2024-01-07T03:21:54;21.40;;;10.68;;
11287;SDS011;5700;50.996;7.044;2024-01-07T03:24:58;19.73;;;9.82;;
11287;SDS011;5700;50.996;7.044;2024-01-07T03:28:00;17.10;;;9.35;;
11287;SDS011;5700;50.996;7.044;2024-01-07T03:31:03;21.65;;;10.38;;
11287;SDS011;5700;50.996;7.044;2024-01-07T03:34:06;19.48;;;9.63;;
11287;SDS011;5700;50.996;7.044;2024-01-07T03:37:08;23.48;;;11.45;;
11287;SDS011;5700;50.996;7.044;2024-01-07T03:40:11;19.25;;;9.90;;
11287;SDS011;5700;50.996;7.044;2024-01-07T03:43:13;20.75;;;9.70;;
11287;SDS011;5700;50.996;7.044;2024-01-07T03:46:15;19.55;;;8.85;;
11287;SDS011;5700;50.996;7.044;2024-01-07T03:49:17;16.80;;;8.48;;
11287;SDS011;5700;50.996;7.044;2024-01-07T03:52:19;17.85;;;8.48;;
11287;SDS011;5700;50.996;7.044;2024-01-07T03:55:22;17.33;;;8.48;;
11287;SDS011;5700;50.996;7.044;2024-01-07T03:58:24;14.57;;;7.25;;
11287;SDS011;5700;50.996;7.044;2024-01-07T04:01:25;15.10;;;7.80;;
11287;SDS011;5700;50.996;7.044;2024-01-07T04:04:27;16.45;;;7.95;;
11287;SDS011;5700;50.996;7.044;2024-01-07T04:07:28;16.83;;;7.43;;
11287;SDS011;5700;50.996;7.044;2024-01-07T04:10:31;14.43;;;7.22;;
11287;SDS011;5700;50.996;7.044;2024-01-07T04:13:33;15.48;;;7.05;;
11287;SDS011;5700;50.996;7.044;2024-01-07T04:16:35;15.55;;;7.90;;
11287;SDS011;5700;50.996;7.044;2024-01-07T04:19:37;17.40;;;9.10;;
11287;SDS011;5700;50.996;7.044;2024-01-07T04:22:38;19.33;;;8.75;;
11287;SDS011;5700;50.996;7.044;2024-01-07T04:25:42;17.05;;;7.85;;
11287;SDS011;5700;50.996;7.044;2024-01-07T04:28:45;15.40;;;8.30;;
11287;SDS011;5700;50.996;7.044;2024-01-07T04:31:46;14.98;;;7.80;;
11287;SDS011;5700;50.996;7.044;2024-01-07T04:34:49;18.58;;;8.85;;
11287;SDS011;5700;50.996;7.044;2024-01-07T04:37:50;16.48;;;7.57;;
11287;SDS011;5700;50.996;7.044;2024-01-07T04:40:54;18.20;;;9.18;;
11287;SDS011;5700;50.996;7.044;2024-01-07T04:43:55;19.38;;;9.13;;
11287;SDS011;5700;50.996;7.044;2024-01-07T04:46:57;18.25;;;8.93;;
11287;SDS011;5700;50.996;7.044;2024-01-07T04:49:59;19.80;;;9.95;;
11287;SDS011;5700;50.996;7.044;2024-01-07T04:53:01;20.88;;;9.50;;
11287;SDS011;5700;50.996;7.044;2024-01-07T04:56:04;21.17;;;9.23;;
11287;SDS011;5700;50.996;7.044;2024-01-07T04:59:06;19.58;;;9.75;;
11287;SDS011;5700;50.996;7.044;2024-01-07T05:02:08;21.08;;;10.15;;
11287;SDS011;5700;50.996;7.044;2024-01-07T05:05:09;20.42;;;9.63;;
11287;SDS011;5700;50.996;7.044;2024-01-07T05:08:11;19.98;;;9.82;;
11287;SDS011;5700;50.996;7.044;2024-01-07T05:11:14;21.70;;;9.80;;
11287;SDS011;5700;50.996;7.044;2024-01-07T05:14:17;17.55;;;9.20;;
11287;SDS011;5700;50.996;7.044;2024-01-07T05:17:19;18.30;;;9.52;;
11287;SDS011;5700;50.996;7.044;2024-01-07T05:20:20;19.33;;;8.88;;
11287;SDS011;5700;50.996;7.044;2024-01-07T05:23:22;18.33;;;8.70;;
11287;SDS011;5700;50.996;7.044;2024-01-07T05:26:24;19.60;;;9.48;;
11287;SDS011;5700;50.996;7.044;2024-01-07T05:29:26;20.40;;;9.93;;
11287;SDS011;5700;50.996;7.044;2024-01-07T05:32:27;19.67;;;9.65;;
11287;SDS011;5700;50.996;7.044;2024-01-07T05:35:29;23.75;;;10.00;;
11287;SDS011;5700;50.996;7.044;2024-01-07T05:38:30;21.00;;;9.93;;
11287;SDS011;5700;50.996;7.044;2024-01-07T05:41:36;19.77;;;9.27;;
11287;SDS011;5700;50.996;7.044;2024-01-07T05:44:38;23.15;;;10.85;;
11287;SDS011;5700;50.996;7.044;2024-01-07T05:47:40;18.77;;;8.75;;
11287;SDS011;5700;50.996;7.044;2024-01-07T05:50:42;18.35;;;10.20;;
11287;SDS011;5700;50.996;7.044;2024-01-07T05:53:44;21.52;;;10.00;;
11287;SDS011;5700;50.996;7.044;2024-01-07T05:56:47;17.58;;;9.55;;
11287;SDS011;5700;50.996;7.044;2024-01-07T05:59:49;18.63;;;8.70;;
11287;SDS011;5700;50.996;7.044;2024-01-07T06:02:51;22.08;;;9.10;;
11287;SDS011;5700;50.996;7.044;2024-01-07T06:05:52;19.42;;;9.80;;
11287;SDS011;5700;50.996;7.044;2024-01-07T06:08:54;18.77;;;9.43;;
11287;SDS011;5700;50.996;7.044;2024-01-07T06:11:57;19.45;;;9.43;;
11287;SDS011;5700;50.996;7.044;2024-01-07T06:14:59;17.10;;;8.60;;
11287;SDS011;5700;50.996;7.044;2024-01-07T06:18:01;18.70;;;9.45;;
11287;SDS011;5700;50.996;7.044;2024-01-07T06:21:03;17.40;;;9.18;;
11287;SDS011;5700;50.996;7.044;2024-01-07T06:24:05;20.65;;;9.32;;
11287;SDS011;5700;50.996;7.044;2024-01-07T06:27:10;16.63;;;8.60;;
11287;SDS011;5700;50.996;7.044;2024-01-07T06:30:12;21.20;;;10.38;;
11287;SDS011;5700;50.996;7.044;2024-01-07T06:33:17;17.60;;;9.75;;
11287;SDS011;5700;50.996;7.044;2024-01-07T06:36:20;19.38;;;8.60;;
11287;SDS011;5700;50.996;7.044;2024-01-07T06:39:22;19.25;;;9.45;;
11287;SDS011;5700;50.996;7.044;2024-01-07T06:42:28;18.77;;;8.98;;
11287;SDS011;5700;50.996;7.044;2024-01-07T06:45:30;21.05;;;10.38;;
11287;SDS011;5700;50.996;7.044;2024-01-07T06:48:32;19.42;;;9.15;;
11287;SDS011;5700;50.996;7.044;2024-01-07T06:51:33;22.08;;;10.70;;
11287;SDS011;5700;50.996;7.044;2024-01-07T06:54:35;19.40;;;9.85;;
11287;SDS011;5700;50.996;7.044;2024-01-07T06:57:40;15.45;;;8.32;;
11287;SDS011;5700;50.996;7.044;2024-01-07T07:00:42;16.55;;;8.90;;
11287;SDS011;5700;50.996;7.044;2024-01-07T07:03:44;16.17;;;8.18;;
11287;SDS011;5700;50.996;7.044;2024-01-07T07:06:47;15.45;;;8.45;;
11287;SDS011;5700;50.996;7.044;2024-01-07T07:09:48;17.75;;;8.43;;
11287;SDS011;5700;50.996;7.044;2024-01-07T07:12:52;17.33;;;8.27;;
11287;SDS011;5700;50.996;7.044;2024-01-07T07:15:53;18.83;;;8.88;;
11287;SDS011;5700;50.996;7.044;2024-01-07T07:18:54;16.33;;;8.27;;
11287;SDS011;5700;50.996;7.044;2024-01-07T07:21:56;15.63;;;7.82;;
11287;SDS011;5700;50.996;7.044;2024-01-07T07:24:58;15.65;;;8.50;;
11287;SDS011;5700;50.996;7.044;2024-01-07T07:28:01;16.73;;;8.82;;
11287;SDS011;5700;50.996;7.044;2024-01-07T07:31:03;18.10;;;8.43;;
11287;SDS011;5700;50.996;7.044;2024-01-07T07:34:05;16.25;;;8.38;;
11287;SDS011;5700;50.996;7.044;2024-01-07T07:37:06;16.83;;;8.23;;
11287;SDS011;5700;50.996;7.044;2024-01-07T07:40:08;13.93;;;7.97;;
11287;SDS011;5700;50.996;7.044;2024-01-07T07:43:14;17.20;;;8.35;;
11287;SDS011;5700;50.996;7.044;2024-01-07T07:46:15;14.68;;;7.95;;
11287;SDS011;5700;50.996;7.044;2024-01-07T07:49:17;16.02;;;8.30;;
11287;SDS011;5700;50.996;7.044;2024-01-07T07:52:18;15.75;;;8.13;;
11287;SDS011;5700;50.996;7.044;2024-01-07T07:55:22;14.60;;;7.22;;
11287;SDS011;5700;50.996;7.044;2024-01-07T07:58:25;19.98;;;9.23;;
11287;SDS011;5700;50.996;7.044;2024-01-07T08:01:26;19.90;;;8.68;;
11287;SDS011;5700;50.996;7.044;2024-01-07T08:04:28;15.85;;;8.73;;
11287;SDS011;5700;50.996;7.044;2024-01-07T08:07:30;14.27;;;7.13;;
11287;SDS011;5700;50.996;7.044;2024-01-07T08:10:32;13.68;;;7.55;;
11287;SDS011;5700;50.996;7.044;2024-01-07T08:13:37;18.45;;;9.23;;
11287;SDS011;5700;50.996;7.044;2024-01-07T08:16:38;16.98;;;8.18;;
11287;SDS011;5700;50.996;7.044;2024-01-07T08:19:40;16.95;;;8.98;;
11287;SDS011;5700;50.996;7.044;2024-01-07T08:22:42;14.02;;;7.70;;
11287;SDS011;5700;50.996;7.044;2024-01-07T08:25:44;16.45;;;8.50;;
11287;SDS011;5700;50.996;7.044;2024-01-07T08:28:47;18.23;;;9.10;;
11287;SDS011;5700;50.996;7.044;2024-01-07T08:31:49;16.58;;;8.00;;
11287;SDS011;5700;50.996;7.044;2024-01-07T08:34:51;19.88;;;9.35;;
11287;SDS011;5700;50.996;7.044;2024-01-07T08:37:52;17.67;;;9.52;;
11287;SDS011;5700;50.996;7.044;2024-01-07T08:40:54;16.38;;;8.57;;
11287;SDS011;5700;50.996;7.044;2024-01-07T08:43:57;16.45;;;8.50;;
11287;SDS011;5700;50.996;7.044;2024-01-07T08:46:58;17.10;;;8.27;;
11287;SDS011;5700;50.996;7.044;2024-01-07T08:50:01;14.80;;;7.78;;
11287;SDS011;5700;50.996;7.044;2024-01-07T08:53:03;17.55;;;8.23;;
11287;SDS011;5700;50.996;7.044;2024-01-07T08:56:05;17.45;;;7.07;;
11287;SDS011;5700;50.996;7.044;2024-01-07T08:59:09;16.70;;;9.20;;
11287;SDS011;5700;50.996;7.044;2024-01-07T09:02:10;16.50;;;8.07;;
11287;SDS011;5700;50.996;7.044;2024-01-07T09:05:13;14.82;;;7.75;;
11287;SDS011;5700;50.996;7.044;2024-01-07T09:08:15;15.50;;;7.57;;
11287;SDS011;5700;50.996;7.044;2024-01-07T09:11:18;17.38;;;8.40;;
11287;SDS011;5700;50.996;7.044;2024-01-07T09:14:21;21.10;;;8.68;;
11287;SDS011;5700;50.996;7.044;2024-01-07T09:17:25;17.38;;;8.80;;
11287;SDS011;5700;50.996;7.044;2024-01-07T09:20:27;18.25;;;9.48;;
11287;SDS011;5700;50.996;7.044;2024-01-07T09:23:28;16.70;;;8.50;;
11287;SDS011;5700;50.996;7.044;2024-01-07T09:26:30;20.80;;;9.30;;
11287;SDS011;5700;50.996;7.044;2024-01-07T09:29:33;16.85;;;8.48;;
11287;SDS011;5700;50.996;7.044;2024-01-07T09:32:35;18.25;;;8.75;;
11287;SDS011;5700;50.996;7.044;2024-01-07T09:35:36;19.05;;;8.85;;
11287;SDS011;5700;50.996;7.044;2024-01-07T09:38:38;16.58;;;8.15;;
11287;SDS011;5700;50.996;7.044;2024-01-07T09:41:41;12.02;;;6.80;;
11287;SDS011;5700;50.996;7.044;2024-01-07T09:44:45;10.90;;;6.05;;
11287;SDS011;5700;50.996;7.044;2024-01-07T09:47:47;10.57;;;5.35;;
11287;SDS011;5700;50.996;7.044;2024-01-07T09:50:49;11.35;;;5.50;;
11287;SDS011;5700;50.996;7.044;2024-01-07T09:53:51;9.38;;;5.45;;
11287;SDS011;5700;50.996;7.044;2024-01-07T09:57:00;11.73;;;5.75;;
11287;SDS011;5700;50.996;7.044;2024-01-07T10:00:04;9.85;;;5.40;;
11287;SDS011;5700;50.996;7.044;2024-01-07T10:03:07;9.65;;;4.85;;
11287;SDS011;5700;50.996;7.044;2024-01-07T10:06:10;8.40;;;5.10;;
11287;SDS011;5700;50.996;7.044;2024-01-07T10:09:11;8.15;;;5.10;;
11287;SDS011;5700;50.996;7.044;2024-01-07T10:12:13;11.02;;;5.25;;
11287;SDS011;5700;50.996;7.044;2024-01-07T10:15:16;13.05;;;6.10;;
11287;SDS011;5700;50.996;7.044;2024-01-07T10:18:18;12.63;;;6.40;;
11287;SDS011;5700;50.996;7.044;2024-01-07T10:21:19;14.82;;;6.18;;
11287;SDS011;5700;50.996;7.044;2024-01-07T10:24:21;12.23;;;6.75;;
11287;SDS011;5700;50.996;7.044;2024-01-07T10:27:22;12.32;;;6.88;;
11287;SDS011;5700;50.996;7.044;2024-01-07T10:30:26;14.43;;;7.30;;
11287;SDS011;5700;50.996;7.044;2024-01-07T10:33:30;13.20;;;7.20;;
11287;SDS011;5700;50.996;7.044;2024-01-07T10:36:32;12.93;;;6.47;;
11287;SDS011;5700;50.996;7.044;2024-01-07T10:39:33;13.75;;;7.47;;
11287;SDS011;5700;50.996;7.044;2024-01-07T10:42:35;12.85;;;6.60;;
11287;SDS011;5700;50.996;7.044;2024-01-07T10:45:38;13.93;;;7.65;;
11287;SDS011;5700;50.996;7.044;2024-01-07T10:48:42;13.68;;;6.78;;
11287;SDS011;5700;50.996;7.044;2024-01-07T10:52:00;13.85;;;7.28;;
11287;SDS011;5700;50.996;7.044;2024-01-07T10:55:08;14.02;;;7.50;;
11287;SDS011;5700;50.996;7.044;2024-01-07T10:58:11;12.80;;;7.15;;
11287;SDS011;5700;50.996;7.044;2024-01-07T11:01:15;15.68;;;7.55;;
11287;SDS011;5700;50.996;7.044;2024-01-07T11:04:17;14.35;;;8.23;;
11287;SDS011;5700;50.996;7.044;2024-01-07T11:07:23;20.73;;;8.63;;
11287;SDS011;5700;50.996;7.044;2024-01-07T11:10:37;17.00;;;8.05;;
11287;SDS011;5700;50.996;7.044;2024-01-07T11:13:41;16.10;;;8.82;;
11287;SDS011;5700;50.996;7.044;2024-01-07T11:16:44;16.38;;;7.88;;
11287;SDS011;5700;50.996;7.044;2024-01-07T11:19:49;16.60;;;9.10;;
11287;SDS011;5700;50.996;7.044;2024-01-07T11:22:52;15.80;;;8.25;;
11287;SDS011;5700;50.996;7.044;2024-01-07T11:25:54;16.42;;;7.60;;
11287;SDS011;5700;50.996;7.044;2024-01-07T11:28:57;18.42;;;9.18;;
11287;SDS011;5700;50.996;7.044;2024-01-07T11:32:00;15.57;;;8.35;;
11287;SDS011;5700;50.996;7.044;2024-01-07T11:35:02;15.65;;;7.60;;
11287;SDS011;5700;50.996;7.044;2024-01-07T11:38:04;15.85;;;8.68;;
11287;SDS011;5700;50.996;7.044;2024-01-07T11:41:06;15.13;;;8.00;;
11287;SDS011;5700;50.996;7.044;2024-01-07T11:44:09;17.50;;;8.82;;
11287;SDS011;5700;50.996;7.044;2024-01-07T11:47:13;14.93;;;7.97;;
11287;SDS011;5700;50.996;7.044;2024-01-07T11:50:15;15.90;;;8.98;;
11287;SDS011;5700;50.996;7.044;2024-01-07T11:53:17;13.18;;;7.18;;
11287;SDS011;5700;50.996;7.044;2024-01-07T11:56:19;14.45;;;7.88;;
11287;SDS011;5700;50.996;7.044;2024-01-07T11:59:20;16.83;;;8.00;;
11287;SDS011;5700;50.996;7.044;2024-01-07T12:02:24;12.82;;;6.20;;
11287;SDS011;5700;50.996;7.044;2024-01-07T12:05:30;12.45;;;6.95;;
11287;SDS011;5700;50.996;7.044;2024-01-07T12:08:31;14.43;;;6.85;;
11287;SDS011;5700;50.996;7.044;2024-01-07T12:11:33;13.10;;;7.38;;
11287;SDS011;5700;50.996;7.044;2024-01-07T12:14:35;12.77;;;6.93;;
11287;SDS011;5700;50.996;7.044;2024-01-07T12:17:40;13.20;;;6.35;;
11287;SDS011;5700;50.996;7.044;2024-01-07T12:20:41;12.93;;;7.50;;
11287;SDS011;5700;50.996;7.044;2024-01-07T12:23:43;13.30;;;6.93;;
11287;SDS011;5700;50.996;7.044;2024-01-07T12:26:45;14.35;;;6.95;;
11287;SDS011;5700;50.996;7.044;2024-01-07T12:29:53;12.27;;;6.53;;
11287;SDS011;5700;50.996;7.044;2024-01-07T12:32:58;15.25;;;7.13;;
11287;SDS011;5700;50.996;7.044;2024-01-07T12:36:00;12.38;;;6.55;;
11287;SDS011;5700;50.996;7.044;2024-01-07T12:39:01;13.65;;;6.72;;
11287;SDS011;5700;50.996;7.044;2024-01-07T12:42:03;12.25;;;6.18;;
11287;SDS011;5700;50.996;7.044;2024-01-07T12:45:07;11.50;;;6.15;;
11287;SDS011;5700;50.996;7.044;2024-01-07T12:48:11;12.70;;;6.13;;
11287;SDS011;5700;50.996;7.044;2024-01-07T12:51:13;11.55;;;5.57;;
11287;SDS011;5700;50.996;7.044;2024-01-07T12:54:14;9.25;;;5.22;;
11287;SDS011;5700;50.996;7.044;2024-01-07T12:57:17;12.23;;;5.93;;
11287;SDS011;5700;50.996;7.044;2024-01-07T13:00:18;11.07;;;4.97;;
11287;SDS011;5700;50.996;7.044;2024-01-07T13:03:21;12.60;;;5.18;;
11287;SDS011;5700;50.996;7.044;2024-01-07T13:06:25;7.85;;;4.28;;
11287;SDS011;5700;50.996;7.044;2024-01-07T13:09:26;12.95;;;5.00;;
11287;SDS011;5700;50.996;7.044;2024-01-07T13:12:28;8.65;;;4.32;;
11287;SDS011;5700;50.996;7.044;2024-01-07T13:15:29;9.10;;;4.45;;
11287;SDS011;5700;50.996;7.044;2024-01-07T13:18:33;10.00;;;4.93;;
11287;SDS011;5700;50.996;7.044;2024-01-07T13:21:34;7.95;;;4.25;;
11287;SDS011;5700;50.996;7.044;2024-01-07T13:24:37;7.38;;;4.45;;
11287;SDS011;5700;50.996;7.044;2024-01-07T13:27:38;7.68;;;4.57;;
11287;SDS011;5700;50.996;7.044;2024-01-07T13:30:42;8.02;;;3.78;;
11287;SDS011;5700;50.996;7.044;2024-01-07T13:33:45;12.13;;;3.80;;
11287;SDS011;5700;50.996;7.044;2024-01-07T13:36:46;7.60;;;3.60;;
11287;SDS011;5700;50.996;7.044;2024-01-07T13:39:48;6.63;;;3.60;;
11287;SDS011;5700;50.996;7.044;2024-01-07T13:42:50;7.40;;;4.07;;
11287;SDS011;5700;50.996;7.044;2024-01-07T13:45:53;8.35;;;4.43;;
11287;SDS011;5700;50.996;7.044;2024-01-07T13:48:56;6.95;;;3.45;;
11287;SDS011;5700;50.996;7.044;2024-01-07T13:51:58;7.18;;;4.05;;
11287;SDS011;5700;50.996;7.044;2024-01-07T13:54:59;6.75;;;3.58;;
11287;SDS011;5700;50.996;7.044;2024-01-07T13:58:03;8.30;;;3.60;;
11287;SDS011;5700;50.996;7.044;2024-01-07T14:01:05;5.70;;;3.40;;
11287;SDS011;5700;50.996;7.044;2024-01-07T14:04:08;6.97;;;3.88;;
11287;SDS011;5700;50.996;7.044;2024-01-07T14:07:09;6.78;;;3.90;;
11287;SDS011;5700;50.996;7.044;2024-01-07T14:10:11;7.72;;;4.20;;
11287;SDS011;5700;50.996;7.044;2024-01-07T14:13:13;10.85;;;4.25;;
11287;SDS011;5700;50.996;7.044;2024-01-07T14:16:14;6.78;;;3.58;;
11287;SDS011;5700;50.996;7.044;2024-01-07T14:19:18;7.10;;;3.40;;
11287;SDS011;5700;50.996;7.044;2024-01-07T14:22:20;8.05;;;3.45;;
11287;SDS011;5700;50.996;7.044;2024-01-07T14:25:22;6.68;;;3.30;;
11287;SDS011;5700;50.996;7.044;2024-01-07T14:28:23;8.38;;;2.90;;
11287;SDS011;5700;50.996;7.044;2024-01-07T14:31:25;6.53;;;3.15;;
11287;SDS011;5700;50.996;7.044;2024-01-07T14:34:28;7.40;;;3.17;;
11287;SDS011;5700;50.996;7.044;2024-01-07T14:37:30;6.18;;;2.88;;
11287;SDS011;5700;50.996;7.044;2024-01-07T14:40:32;6.38;;;3.05;;
11287;SDS011;5700;50.996;7.044;2024-01-07T14:43:33;7.25;;;2.95;;
11287;SDS011;5700;50.996;7.044;2024-01-07T14:46:35;5.45;;;2.80;;
11287;SDS011;5700;50.996;7.044;2024-01-07T14:49:39;4.82;;;3.00;;
11287;SDS011;5700;50.996;7.044;2024-01-07T14:52:41;7.60;;;3.65;;
11287;SDS011;5700;50.996;7.044;2024-01-07T14:55:43;6.38;;;2.95;;
11287;SDS011;5700;50.996;7.044;2024-01-07T14:58:44;5.65;;;2.60;;
11287;SDS011;5700;50.996;7.044;2024-01-07T15:01:46;4.97;;;2.60;;
11287;SDS011;5700;50.996;7.044;2024-01-07T15:04:49;5.03;;;2.50;;
11287;SDS011;5700;50.996;7.044;2024-01-07T15:07:52;3.10;;;2.00;;
11287;SDS011;5700;50.996;7.044;2024-01-07T15:10:54;9.15;;;2.78;;
11287;SDS011;5700;50.996;7.044;2024-01-07T15:13:55;4.97;;;2.47;;
11287;SDS011;5700;50.996;7.044;2024-01-07T15:16:57;4.85;;;2.55;;
11287;SDS011;5700;50.996;7.044;2024-01-07T15:20:00;4.93;;;2.38;;
11287;SDS011;5700;50.996;7.044;2024-01-07T15:23:03;8.15;;;3.05;;
11287;SDS011;5700;50.996;7.044;2024-01-07T15:26:04;4.65;;;2.35;;
11287;SDS011;5700;50.996;7.044;2024-01-07T15:29:06;5.78;;;2.05;;
11287;SDS011;5700;50.996;7.044;2024-01-07T15:32:08;4.63;;;2.30;;
11287;SDS011;5700;50.996;7.044;2024-01-07T15:35:11;4.85;;;2.13;;
11287;SDS011;5700;50.996;7.044;2024-01-07T15:38:13;4.43;;;2.10;;
11287;SDS011;5700;50.996;7.044;2024-01-07T15:41:15;4.15;;;2.05;;
11287;SDS011;5700;50.996;7.044;2024-01-07T15:44:16;3.20;;;1.58;;
11287;SDS011;5700;50.996;7.044;2024-01-07T15:47:17;7.20;;;2.33;;
11287;SDS011;5700;50.996;7.044;2024-01-07T15:50:20;3.92;;;1.98;;
11287;SDS011;5700;50.996;7.044;2024-01-07T15:53:22;5.93;;;1.95;;
11287;SDS011;5700;50.996;7.044;2024-01-07T15:56:29;4.95;;;1.75;;
11287;SDS011;5700;50.996;7.044;2024-01-07T15:59:30;2.28;;;1.42;;
11287;SDS011;5700;50.996;7.044;2024-01-07T16:02:32;5.05;;;2.22;;
11287;SDS011;5700;50.996;7.044;2024-01-07T16:05:36;6.13;;;2.28;;
11287;SDS011;5700;50.996;7.044;2024-01-07T16:08:38;5.22;;;2.72;;
11287;SDS011;5700;50.996;7.044;2024-01-07T16:11:39;6.60;;;2.85;;
11287;SDS011;5700;50.996;7.044;2024-01-07T16:14:42;6.57;;;2.92;;
11287;SDS011;5700;50.996;7.044;2024-01-07T16:17:44;4.95;;;2.08;;
11287;SDS011;5700;50.996;7.044;2024-01-07T16:20:47;5.30;;;2.35;;
11287;SDS011;5700;50.996;7.044;2024-01-07T16:23:49;4.78;;;2.00;;
11287;SDS011;5700;50.996;7.044;2024-01-07T16:26:53;6.63;;;2.15;;
11287;SDS011;5700;50.996;7.044;2024-01-07T16:29:55;2.53;;;1.95;;
11287;SDS011;5700;50.996;7.044;2024-01-07T16:32:56;2.33;;;1.65;;
11287;SDS011;5700;50.996;7.044;2024-01-07T16:35:59;3.55;;;1.88;;
11287;SDS011;5700;50.996;7.044;2024-01-07T16:39:01;4.45;;;2.10;;
11287;SDS011;5700;50.996;7.044;2024-01-07T16:42:04;4.05;;;1.92;;
11287;SDS011;5700;50.996;7.044;2024-01-07T16:45:06;3.97;;;1.85;;
11287;SDS011;5700;50.996;7.044;2024-01-07T16:48:09;2.50;;;1.60;;
11287;SDS011;5700;50.996;7.044;2024-01-07T16:51:12;3.90;;;2.40;;
11287;SDS011;5700;50.996;7.044;2024-01-07T16:54:14;5.47;;;2.42;;
11287;SDS011;5700;50.996;7.044;2024-01-07T16:57:16;4.65;;;2.10;;
11287;SDS011;5700;50.996;7.044;2024-01-07T17:00:19;5.93;;;2.50;;
11287;SDS011;5700;50.996;7.044;2024-01-07T17:03:21;2.92;;;1.88;;
11287;SDS011;5700;50.996;7.044;2024-01-07T17:06:24;3.28;;;1.67;;
11287;SDS011;5700;50.996;7.044;2024-01-07T17:09:25;3.53;;;2.00;;
11287;SDS011;5700;50.996;7.044;2024-01-07T17:12:27;5.63;;;1.90;;
11287;SDS011;5700;50.996;7.044;2024-01-07T17:15:29;3.75;;;1.95;;
11287;SDS011;5700;50.996;7.044;2024-01-07T17:18:31;4.75;;;1.90;;
11287;SDS011;5700;50.996;7.044;2024-01-07T17:21:34;4.45;;;2.03;;
11287;SDS011;5700;50.996;7.044;2024-01-07T17:24:36;3.58;;;2.35;;
11287;SDS011;5700;50.996;7.044;2024-01-07T17:27:37;4.53;;;2.20;;
11287;SDS011;5700;50.996;7.044;2024-01-07T17:30:39;3.72;;;2.20;;
11287;SDS011;5700;50.996;7.044;2024-01-07T17:33:41;4.68;;;2.40;;
11287;SDS011;5700;50.996;7.044;2024-01-07T17:36:44;4.15;;;2.20;;
11287;SDS011;5700;50.996;7.044;2024-01-07T17:39:46;3.22;;;2.00;;
11287;SDS011;5700;50.996;7.044;2024-01-07T17:42:48;2.75;;;1.80;;
11287;SDS011;5700;50.996;7.044;2024-01-07T17:45:51;5.22;;;2.42;;
11287;SDS011;5700;50.996;7.044;2024-01-07T17:48:54;4.32;;;2.50;;
11287;SDS011;5700;50.996;7.044;2024-01-07T17:51:57;4.70;;;2.38;;
11287;SDS011;5700;50.996;7.044;2024-01-07T17:54:59;10.48;;;2.70;;
11287;SDS011;5700;50.996;7.044;2024-01-07T17:58:02;3.90;;;2.30;;
11287;SDS011;5700;50.996;7.044;2024-01-07T18:01:05;5.25;;;2.45;;
11287;SDS011;5700;50.996;7.044;2024-01-07T18:04:09;5.38;;;2.17;;
11287;SDS011;5700;50.996;7.044;2024-01-07T18:07:12;4.07;;;2.28;;
11287;SDS011;5700;50.996;7.044;2024-01-07T18:10:15;5.93;;;2.30;;
11287;SDS011;5700;50.996;7.044;2024-01-07T18:13:17;4.05;;;2.20;;
11287;SDS011;5700;50.996;7.044;2024-01-07T18:16:18;4.57;;;2.35;;
11287;SDS011;5700;50.996;7.044;2024-01-07T18:19:20;3.35;;;1.70;;
11287;SDS011;5700;50.996;7.044;2024-01-07T18:22:23;2.70;;;1.80;;
11287;SDS011;5700;50.996;7.044;2024-01-07T18:25:25;9.32;;;2.40;;